メインページ
METAR-TAF:

METAR-TAF

空港 :

Grosse Ile Municipal Airport

デトロイト / Grosse Ile, ミシガン州, アメリカ合衆国

緯度: 42-05-55N, 経度: 083-09-40W, 海抜: 180m

現時点の気象観測

当レポートは18分前の22:55(UTC)に作成
南西の風 6kt
気温 2°C
湿度 75%
気圧 1018 hPa
視程: 16.1km
晴天

METAR: KONZ 162255Z AUTO 23006KT 10SM CLR 02/M02 A3006 RMK AO2 T00221020

時間: 18:13 (23:13 UTC)


TAF: 見つかりません

4,000以上の空港の気象観測と天気予報(METAR報とTAF報)

利用可能な観測所は地図上に黄色い丸と赤い丸で示す。

丸の上にカーソルを重ねると観測所名を参照できる。

次にクリックすると気象観測と天気予報を参照できる。

マップの切り替え:黒色「×」印の緑ボタンをクリックして拡大、「-」印の緑ボタンをクリックして縮小、緑色の三角印をクリックして隣りの地図に切り替え


METAR-TAF: